Time;durP1;ratioP1;P1;durP2;ratioP2;P2;SDS_P1;SDS_P2;PMS_P1;PMS_P2;Temp;Humidity;BMP_temperature;BMP_pressure;BME280_temperature;BME280_humidity;BME280_pressure;Samples;Min_cycle;Max_cycle;Signal;HPM_P1;HPM_P2
2022/06/27 00:01:33;;;;;;;10.32;7.40;;;;;;;18.04;84.53;100905.13;6222332;23;20055;-80
2022/06/27 00:04:01;;;;;;;9.77;6.95;;;;;;;18.00;84.38;100922.41;6222240;23;20025;-81
2022/06/27 00:06:28;;;;;;;10.35;6.95;;;;;;;17.97;84.30;100912.22;6225251;23;20031;-79
2022/06/27 00:08:54;;;;;;;12.32;6.78;;;;;;;17.89;85.18;100909.75;6231166;23;20032;-82
2022/06/27 00:11:22;;;;;;;14.68;6.88;;;;;;;17.74;85.74;100906.44;6224268;23;20032;-82
2022/06/27 00:13:49;;;;;;;11.27;6.88;;;;;;;17.63;86.59;100912.22;6231257;23;20020;-79
2022/06/27 00:16:16;;;;;;;10.82;7.13;;;;;;;17.68;87.31;100913.31;6233136;23;20051;-83
2022/06/27 00:18:42;;;;;;;10.55;7.05;;;;;;;17.70;86.83;100915.75;6223114;23;20021;-78
2022/06/27 00:21:10;;;;;;;15.20;8.43;;;;;;;17.71;87.27;100902.34;6219589;23;20066;-80
2022/06/27 00:23:37;;;;;;;13.60;6.57;;;;;;;17.72;86.81;100896.03;6219915;23;20306;-80
2022/06/27 00:26:04;;;;;;;10.38;7.38;;;;;;;17.69;86.37;100903.53;6218755;23;20051;-80
2022/06/27 00:28:31;;;;;;;13.52;7.63;;;;;;;17.70;86.46;100890.13;6218436;23;20028;-81
2022/06/27 00:30:57;;;;;;;9.57;7.22;;;;;;;17.62;86.57;100884.13;6217903;23;20023;-79
2022/06/27 00:33:24;;;;;;;10.68;6.80;;;;;;;17.55;86.25;100886.75;6218902;23;20040;-82
2022/06/27 00:35:53;;;;;;;8.38;7.07;;;;;;;17.46;85.84;100890.59;6218314;23;20031;-80
2022/06/27 00:38:21;;;;;;;8.45;6.45;;;;;;;17.55;85.03;100903.44;6218808;23;20021;-81
2022/06/27 00:40:48;;;;;;;7.88;6.60;;;;;;;17.59;84.85;100893.28;6218816;23;20054;-80
2022/06/27 00:43:14;;;;;;;11.10;6.50;;;;;;;17.64;84.21;100908.56;6219220;23;20032;-80
2022/06/27 00:45:41;;;;;;;7.28;6.28;;;;;;;17.71;84.63;100906.81;6219100;23;20100;-81
2022/06/27 00:48:08;;;;;;;8.35;6.35;;;;;;;17.73;85.05;100904.78;6219059;23;20024;-81
2022/06/27 00:50:35;;;;;;;14.20;7.38;;;;;;;17.76;85.92;100899.09;6217255;23;20055;-80
2022/06/27 00:53:01;;;;;;;14.40;6.78;;;;;;;17.77;85.48;100898.91;6216947;23;20473;-82
2022/06/27 00:55:31;;;;;;;14.48;6.53;;;;;;;17.77;85.20;100903.38;6216854;23;20016;-81
2022/06/27 00:57:58;;;;;;;8.10;6.55;;;;;;;17.77;85.12;100892.81;6216492;23;20100;-83
2022/06/27 01:00:25;;;;;;;8.63;6.60;;;;;;;17.77;86.34;100893.63;6216771;23;20027;-81
2022/06/27 01:02:51;;;;;;;16.38;7.07;;;;;;;17.77;87.91;100895.44;6219405;23;20036;-80
2022/06/27 01:05:18;;;;;;;12.32;7.28;;;;;;;17.69;88.49;100896.44;6241303;23;20032;-85
2022/06/27 01:07:45;;;;;;;10.85;7.63;;;;;;;17.68;89.43;100883.38;6240231;23;20031;-84
2022/06/27 01:10:11;;;;;;;10.40;7.60;;;;;;;17.54;90.13;100891.22;6238900;23;20024;-81
2022/06/27 01:12:41;;;;;;;11.13;7.75;;;;;;;17.50;90.58;100902.38;6241801;23;20032;-85
2022/06/27 01:15:10;;;;;;;10.70;7.40;;;;;;;17.40;91.38;100909.88;6241181;23;20326;-82
2022/06/27 01:17:36;;;;;;;13.90;7.47;;;;;;;17.42;92.17;100894.63;6232852;23;20025;-81
2022/06/27 01:20:04;;;;;;;16.65;8.30;;;;;;;17.32;92.23;100897.59;6222152;23;20035;-79
2022/06/27 01:22:32;;;;;;;14.82;8.38;;;;;;;17.31;92.41;100903.91;6223237;23;20024;-81
2022/06/27 01:24:59;;;;;;;15.00;8.73;;;;;;;17.20;92.36;100878.00;6222482;23;20055;-82
2022/06/27 01:27:26;;;;;;;17.70;9.07;;;;;;;17.19;92.45;100874.53;6223371;23;20052;-81
2022/06/27 01:29:52;;;;;;;14.75;8.80;;;;;;;17.15;92.15;100873.28;6231614;23;20021;-80
2022/06/27 01:32:19;;;;;;;14.90;8.32;;;;;;;17.16;91.46;100882.03;6239967;23;20012;-83
2022/06/27 01:34:48;;;;;;;15.63;8.93;;;;;;;17.19;91.54;100884.28;6238548;23;20035;-82
2022/06/27 01:37:15;;;;;;;14.23;9.70;;;;;;;17.17;91.66;100879.19;6234799;23;20120;-84
2022/06/27 01:39:43;;;;;;;14.73;9.25;;;;;;;17.15;91.31;100888.31;6221139;23;20335;-81
2022/06/27 01:42:09;;;;;;;14.55;9.82;;;;;;;17.13;91.56;100877.94;6221014;23;20537;-82
2022/06/27 01:44:36;;;;;;;11.43;9.07;;;;;;;17.21;91.88;100876.97;6220596;23;20024;-83
2022/06/27 01:47:06;;;;;;;14.35;9.27;;;;;;;17.20;91.26;100878.00;6220556;23;20025;-82
2022/06/27 01:49:35;;;;;;;17.48;9.48;;;;;;;17.20;91.38;100873.53;6221482;23;20036;-80
2022/06/27 01:52:03;;;;;;;13.82;9.05;;;;;;;17.21;91.58;100874.34;6221611;23;20492;-82
2022/06/27 01:54:30;;;;;;;23.88;10.77;;;;;;;17.23;90.70;100859.09;6222059;23;20033;-82
2022/06/27 01:56:58;;;;;;;12.82;9.32;;;;;;;17.21;90.29;100843.41;6222396;23;20025;-80
2022/06/27 01:59:28;;;;;;;12.60;8.68;;;;;;;17.20;89.95;100835.69;6221927;23;20017;-83
2022/06/27 02:01:55;;;;;;;16.95;8.40;;;;;;;17.20;90.17;100835.69;6221114;23;20020;-82
2022/06/27 02:04:23;;;;;;;12.25;8.63;;;;;;;17.19;90.76;100823.47;6221524;23;20032;-84
2022/06/27 02:06:50;;;;;;;17.13;8.82;;;;;;;17.21;91.27;100809.03;6223654;23;20009;-82
2022/06/27 02:09:17;;;;;;;14.10;8.93;;;;;;;17.16;90.37;100821.22;6221756;23;20035;-82
2022/06/27 02:11:46;;;;;;;12.85;8.73;;;;;;;17.21;90.36;100818.81;6222660;23;20465;-83
2022/06/27 02:14:14;;;;;;;15.55;8.77;;;;;;;17.15;90.91;100815.09;6222957;23;20465;-82
2022/06/27 02:16:42;;;;;;;11.90;8.95;;;;;;;17.19;91.11;100807.59;6224294;23;20031;-80
2022/06/27 02:19:11;;;;;;;11.43;8.88;;;;;;;17.15;91.38;100809.00;6236255;23;20028;-84
2022/06/27 02:21:38;;;;;;;15.57;8.75;;;;;;;17.11;91.40;100819.16;6239796;23;20026;-81
2022/06/27 02:24:06;;;;;;;15.25;9.35;;;;;;;17.09;91.94;100817.69;6235107;23;20021;-82
2022/06/27 02:26:32;;;;;;;16.38;9.27;;;;;;;17.13;92.19;100814.47;6231625;23;20040;-83
2022/06/27 02:29:00;;;;;;;10.30;8.23;;;;;;;17.12;91.17;100818.13;6228174;23;20025;-83
2022/06/27 02:31:28;;;;;;;12.82;8.98;;;;;;;17.13;90.64;100824.25;6222942;23;20036;-80
2022/06/27 02:33:56;;;;;;;13.75;8.60;;;;;;;17.16;90.52;100815.91;6223539;23;20104;-81
2022/06/27 02:36:27;;;;;;;14.35;9.07;;;;;;;17.13;90.68;100808.38;6223976;23;20047;-81
2022/06/27 02:38:56;;;;;;;12.40;8.88;;;;;;;17.14;91.08;100816.13;6223461;23;20052;-82
2022/06/27 02:41:25;;;;;;;11.25;9.48;;;;;;;17.12;91.39;100806.75;6223478;23;20071;-81
2022/06/27 02:43:56;;;;;;;16.58;9.65;;;;;;;17.11;90.80;100800.63;6223690;23;20052;-83
2022/06/27 02:46:23;;;;;;;14.68;9.55;;;;;;;17.14;90.74;100796.78;6224837;23;20100;-84
2022/06/27 02:48:52;;;;;;;13.73;10.15;;;;;;;17.14;90.74;100800.25;6222874;23;20390;-82
2022/06/27 02:51:22;;;;;;;19.52;10.30;;;;;;;17.10;91.37;100795.53;6223670;23;20059;-80
2022/06/27 02:53:55;;;;;;;14.73;10.18;;;;;;;17.15;91.85;100796.59;6225601;23;20024;-81
2022/06/27 02:56:25;;;;;;;16.83;10.65;;;;;;;17.16;92.17;100792.13;6223001;23;20025;-81
2022/06/27 02:58:58;;;;;;;12.70;9.95;;;;;;;17.20;92.45;100793.38;6221937;23;20330;-81
2022/06/27 03:01:28;;;;;;;16.23;10.25;;;;;;;17.15;92.12;100799.25;6221998;23;20036;-78
2022/06/27 03:03:57;;;;;;;15.88;11.20;;;;;;;17.18;92.19;100792.75;6222216;23;20334;-83
2022/06/27 03:06:24;;;;;;;15.73;11.07;;;;;;;17.16;92.58;100818.56;6221273;23;20055;-80
2022/06/27 03:08:50;;;;;;;16.90;10.48;;;;;;;17.18;92.78;100795.41;6221781;23;20259;-81
2022/06/27 03:11:19;;;;;;;16.25;10.70;;;;;;;17.15;92.60;100801.06;6221988;23;20105;-82
2022/06/27 03:13:47;;;;;;;16.20;11.55;;;;;;;17.15;92.83;100793.13;6221402;23;20024;-82
2022/06/27 03:16:14;;;;;;;14.75;11.80;;;;;;;17.19;92.98;100789.09;6222089;23;20048;-82
2022/06/27 03:18:41;;;;;;;13.77;10.75;;;;;;;17.25;93.13;100797.06;6229338;23;20036;-79
2022/06/27 03:21:11;;;;;;;13.98;10.50;;;;;;;17.29;92.57;100807.25;6229866;23;20020;-78
2022/06/27 03:23:38;;;;;;;15.98;11.32;;;;;;;17.24;92.82;100803.38;6223439;23;20024;-79
2022/06/27 03:26:04;;;;;;;15.38;11.65;;;;;;;17.23;92.55;100792.97;6235961;23;20028;-82
2022/06/27 03:28:31;;;;;;;13.45;11.20;;;;;;;17.28;92.49;100809.09;6233711;23;20024;-81
2022/06/27 03:30:58;;;;;;;17.88;11.75;;;;;;;17.23;92.78;100803.56;6225217;23;20020;-82
2022/06/27 03:33:24;;;;;;;14.63;11.75;;;;;;;17.22;92.94;100807.22;6223196;23;20048;-82
2022/06/27 03:35:51;;;;;;;13.93;11.65;;;;;;;17.25;93.38;100814.75;6224204;23;20021;-80
2022/06/27 03:38:19;;;;;;;18.58;12.02;;;;;;;17.23;93.45;100814.97;6223458;23;20032;-83
2022/06/27 03:40:46;;;;;;;17.75;11.98;;;;;;;17.22;93.87;100815.16;6222917;23;20053;-80
2022/06/27 03:43:13;;;;;;;21.38;12.50;;;;;;;17.19;93.74;100823.47;6221673;23;20023;-81
2022/06/27 03:45:40;;;;;;;14.05;11.60;;;;;;;17.18;93.59;100822.66;6213786;23;20129;-84
2022/06/27 03:48:07;;;;;;;17.52;11.68;;;;;;;17.30;93.51;100844.09;6220975;23;20025;-84
2022/06/27 03:50:34;;;;;;;23.52;11.85;;;;;;;17.24;93.86;100836.94;6218965;23;20056;-84
2022/06/27 03:53:01;;;;;;;20.83;11.75;;;;;;;17.28;93.91;100821.50;6218531;23;20025;-84
2022/06/27 03:55:29;;;;;;;19.95;11.68;;;;;;;17.23;94.06;100822.88;6216131;23;20488;-83
2022/06/27 03:57:58;;;;;;;13.95;11.65;;;;;;;17.16;94.02;100823.84;6217054;23;20047;-83
2022/06/27 04:00:31;;;;;;;19.67;12.55;;;;;;;17.16;94.30;100816.75;6215087;23;20463;-84
2022/06/27 04:02:59;;;;;;;17.23;11.90;;;;;;;17.20;94.51;100812.69;6214552;23;20055;-84
2022/06/27 04:05:26;;;;;;;20.25;12.75;;;;;;;17.22;94.39;100810.69;6214892;23;20290;-84
2022/06/27 04:07:52;;;;;;;20.35;12.38;;;;;;;17.13;94.77;100803.09;6215483;23;20505;-84
2022/06/27 04:10:19;;;;;;;18.45;12.88;;;;;;;17.11;94.61;100816.50;6215432;23;20078;-84
2022/06/27 04:12:47;;;;;;;15.30;12.25;;;;;;;17.06;95.13;100818.09;6215609;23;20406;-84
2022/06/27 04:15:13;;;;;;;19.00;13.50;;;;;;;17.15;95.74;100823.03;6214590;23;20088;-84
2022/06/27 04:17:40;;;;;;;18.83;12.68;;;;;;;17.19;95.50;100828.75;6215188;23;20056;-84
2022/06/27 04:20:08;;;;;;;20.75;12.63;;;;;;;17.22;95.38;100833.66;6215859;23;20040;-84
2022/06/27 04:22:34;;;;;;;18.13;12.65;;;;;;;17.23;95.42;100837.94;6216234;23;20052;-84
2022/06/27 04:25:02;;;;;;;16.85;12.38;;;;;;;17.24;95.13;100837.75;6224834;23;20020;-84
2022/06/27 04:27:29;;;;;;;22.95;13.25;;;;;;;17.19;95.09;100823.47;6219648;23;20422;-83
2022/06/27 04:29:57;;;;;;;18.48;12.93;;;;;;;17.12;94.79;100823.44;6218110;23;20020;-83
2022/06/27 04:32:25;;;;;;;22.17;12.80;;;;;;;17.12;94.69;100812.84;6218294;23;20398;-84
2022/06/27 04:34:53;;;;;;;19.50;12.60;;;;;;;17.21;94.14;100810.88;6219256;23;20029;-83
2022/06/27 04:37:19;;;;;;;19.10;12.32;;;;;;;17.30;94.14;100833.50;6220036;23;20017;-84
2022/06/27 04:39:46;;;;;;;15.02;11.80;;;;;;;17.35;93.92;100827.63;6231447;23;20084;-83
2022/06/27 04:42:13;;;;;;;17.15;11.82;;;;;;;17.46;93.76;100835.84;6231990;23;20020;-83
2022/06/27 04:44:42;;;;;;;18.63;12.07;;;;;;;17.45;92.52;100833.41;6232334;23;20020;-84
2022/06/27 04:47:14;;;;;;;16.83;12.18;;;;;;;17.54;90.92;100840.13;6228078;23;20021;-83
2022/06/27 04:49:42;;;;;;;15.90;12.23;;;;;;;17.42;88.80;100839.06;6226654;23;20027;-83
2022/06/27 04:54:56;;;;;;;18.05;12.75;;;;;;;17.33;89.27;100811.97;6211546;23;20087;-84
2022/06/27 04:57:22;;;;;;;19.80;13.27;;;;;;;17.37;88.52;100821.13;6223173;23;20027;-85
2022/06/27 04:59:50;;;;;;;19.63;13.48;;;;;;;17.53;87.86;100839.31;6229613;23;20043;-84
2022/06/27 05:02:18;;;;;;;14.20;12.57;;;;;;;17.51;87.59;100808.78;6227255;23;20017;-85
2022/06/27 05:04:45;;;;;;;14.60;13.10;;;;;;;17.58;87.09;100815.72;6223927;23;20075;-84
2022/06/27 05:07:12;;;;;;;15.52;12.95;;;;;;;17.78;86.52;100812.38;6216908;23;20028;-84
2022/06/27 05:09:38;;;;;;;16.67;13.35;;;;;;;17.79;86.06;100803.44;6217804;23;20016;-84
2022/06/27 05:12:05;;;;;;;15.63;12.98;;;;;;;17.86;85.68;100801.63;6218075;23;20048;-84
2022/06/27 05:14:32;;;;;;;16.02;13.20;;;;;;;18.07;84.99;100796.16;6216039;23;20075;-83
2022/06/27 05:16:59;;;;;;;15.98;13.32;;;;;;;18.00;85.16;100790.03;6216593;23;20157;-84
2022/06/27 05:19:27;;;;;;;16.15;13.07;;;;;;;18.05;85.02;100782.31;6217908;23;20047;-84
2022/06/27 05:21:54;;;;;;;15.70;12.90;;;;;;;18.10;84.77;100765.81;6218357;23;20096;-83
2022/06/27 05:24:20;;;;;;;13.90;12.50;;;;;;;18.21;84.66;100773.16;6219423;23;20024;-83
2022/06/27 05:26:47;;;;;;;16.42;12.23;;;;;;;18.22;84.33;100767.66;6220005;23;20021;-83
2022/06/27 05:29:14;;;;;;;13.55;12.15;;;;;;;18.24;84.16;100765.63;6219838;23;20335;-84
2022/06/27 05:31:41;;;;;;;14.57;12.20;;;;;;;18.23;84.70;100769.28;6218723;23;20422;-83
2022/06/27 05:34:08;;;;;;;14.57;11.95;;;;;;;18.13;84.69;100770.72;6218561;23;20040;-85
2022/06/27 05:36:37;;;;;;;14.45;12.95;;;;;;;17.97;85.73;100763.94;6218397;23;20024;-84
2022/06/27 05:39:05;;;;;;;15.45;12.65;;;;;;;18.05;85.88;100779.66;6224089;23;20021;-85
2022/06/27 05:41:32;;;;;;;13.98;12.57;;;;;;;18.01;85.39;100790.84;6216260;23;20063;-82
2022/06/27 05:43:59;;;;;;;14.98;11.50;;;;;;;17.94;86.04;100796.16;6216504;23;20025;-84
2022/06/27 05:46:26;;;;;;;14.90;11.98;;;;;;;17.95;86.15;100826.91;6214243;23;20032;-84
2022/06/27 05:48:53;;;;;;;17.05;12.25;;;;;;;17.80;86.45;100827.06;6215544;23;20028;-84
2022/06/27 05:51:20;;;;;;;14.93;12.52;;;;;;;17.75;86.75;100818.06;6215901;23;20027;-84
2022/06/27 05:53:49;;;;;;;14.23;12.70;;;;;;;17.58;87.71;100778.69;6221649;23;20017;-83
2022/06/27 05:56:16;;;;;;;18.05;12.93;;;;;;;17.56;88.09;100756.91;6221876;23;20035;-83
2022/06/27 05:58:44;;;;;;;16.65;12.95;;;;;;;17.65;87.86;100785.84;6222494;23;20104;-84
2022/06/27 06:01:10;;;;;;;15.70;12.50;;;;;;;17.80;87.44;100810.34;6214425;23;20028;-87
2022/06/27 06:03:37;;;;;;;14.43;12.45;;;;;;;17.86;86.51;100810.38;6215682;23;20096;-84
2022/06/27 06:06:04;;;;;;;14.52;12.18;;;;;;;18.12;85.74;100827.34;6213767;23;20359;-85
2022/06/27 06:08:32;;;;;;;13.70;11.88;;;;;;;18.20;84.87;100857.09;6218006;23;20493;-84
2022/06/27 06:11:00;;;;;;;14.48;11.85;;;;;;;18.52;83.76;100878.53;6216030;23;20383;-84
2022/06/27 06:13:28;;;;;;;16.23;12.18;;;;;;;18.56;82.96;100880.59;6215599;23;20051;-80
2022/06/27 06:15:55;;;;;;;14.32;11.20;;;;;;;18.60;83.33;100891.63;6220992;23;20027;-83
2022/06/27 06:18:23;;;;;;;13.27;11.93;;;;;;;18.56;82.83;100891.19;6222631;23;20024;-84
2022/06/27 06:20:49;;;;;;;12.57;11.32;;;;;;;18.62;82.45;100899.38;6222908;23;20024;-83
2022/06/27 06:23:18;;;;;;;13.00;11.60;;;;;;;18.38;82.54;100880.38;6220777;23;20021;-83
2022/06/27 06:25:51;;;;;;;14.85;11.68;;;;;;;18.54;82.92;100884.47;6219745;23;20025;-84
2022/06/27 06:28:21;;;;;;;13.88;11.20;;;;;;;18.62;83.13;100904.69;6223025;23;20020;-83
2022/06/27 06:30:48;;;;;;;12.82;11.50;;;;;;;18.76;82.57;100919.59;6223940;23;20020;-82
2022/06/27 06:33:16;;;;;;;15.40;11.27;;;;;;;18.82;82.27;100924.91;6221587;23;20451;-83
2022/06/27 06:35:42;;;;;;;14.77;11.05;;;;;;;18.82;81.74;100940.81;6223964;23;20032;-84
2022/06/27 06:38:10;;;;;;;15.48;11.40;;;;;;;18.82;82.38;100940.81;6222431;23;20084;-83
2022/06/27 06:40:37;;;;;;;13.45;12.05;;;;;;;18.70;83.35;100937.13;6223479;23;20080;-84
2022/06/27 06:43:04;;;;;;;13.50;11.68;;;;;;;18.73;83.15;100936.72;6222880;23;20024;-83
2022/06/27 06:45:35;;;;;;;13.98;11.55;;;;;;;18.76;83.88;100922.25;6224281;23;20025;-84
2022/06/27 06:48:02;;;;;;;14.73;12.15;;;;;;;18.80;83.89;100923.47;6226230;23;20024;-83
2022/06/27 06:50:29;;;;;;;15.32;12.40;;;;;;;18.88;83.36;100900.25;6227467;23;20044;-83
2022/06/27 06:52:56;;;;;;;13.63;12.20;;;;;;;18.87;83.76;100901.25;6229101;23;20096;-84
2022/06/27 06:55:24;;;;;;;16.55;14.18;;;;;;;19.05;83.15;100907.75;6227045;23;20025;-83
2022/06/27 06:57:51;;;;;;;17.65;13.52;;;;;;;19.10;83.54;100902.66;6223031;23;20025;-80
2022/06/27 07:00:19;;;;;;;15.88;12.98;;;;;;;19.40;82.18;100913.63;6222232;23;20021;-83
2022/06/27 07:02:48;;;;;;;15.35;12.30;;;;;;;19.42;81.58;100920.38;6222719;23;20032;-83
2022/06/27 07:05:16;;;;;;;16.08;12.55;;;;;;;19.22;81.22;100901.84;6223499;23;20051;-82
2022/06/27 07:07:43;;;;;;;14.50;11.43;;;;;;;19.31;81.45;100894.50;6224155;23;20021;-82
2022/06/27 07:10:11;;;;;;;14.15;11.38;;;;;;;19.35;80.59;100905.50;6222825;23;20031;-83
2022/06/27 07:12:41;;;;;;;12.50;11.20;;;;;;;19.26;81.17;100890.81;6223606;23;20021;-83
2022/06/27 07:15:10;;;;;;;13.60;12.20;;;;;;;19.26;81.05;100881.03;6222072;23;20024;-83
2022/06/27 07:17:41;;;;;;;15.40;11.65;;;;;;;19.31;80.99;100889.19;6220490;23;20039;-83
2022/06/27 07:20:14;;;;;;;16.48;11.82;;;;;;;19.20;80.33;100887.16;6219598;23;20026;-83
2022/06/27 07:22:42;;;;;;;15.40;10.93;;;;;;;19.32;80.67;100906.75;6220658;23;20034;-82
2022/06/27 07:30:31;;;;;;;18.08;12.27;;;;;;;19.06;80.84;100881.03;6210893;23;20392;-80
2022/06/27 07:32:58;;;;;;;13.45;12.05;;;;;;;18.75;81.53;100867.59;6221037;23;20036;-81
2022/06/27 07:35:44;;;;;;;13.93;11.43;;;;;;;18.87;81.40;100845.59;6221486;23;20040;-82
2022/06/27 07:38:38;;;;;;;13.38;11.10;;;;;;;19.31;81.20;100872.44;6215196;23;20418;-83
2022/06/27 07:41:16;;;;;;;13.40;11.50;;;;;;;19.18;79.33;100870.63;6221362;23;20021;-82
2022/06/27 07:43:44;;;;;;;14.48;11.40;;;;;;;19.32;79.85;100885.50;6210130;23;20025;-79
2022/06/27 07:46:12;;;;;;;13.77;11.43;;;;;;;19.58;79.58;100878.53;6221515;23;20016;-80
2022/06/27 07:48:39;;;;;;;13.48;10.02;;;;;;;19.98;78.84;100893.28;6219319;23;20043;-80
2022/06/27 07:51:08;;;;;;;13.85;10.48;;;;;;;20.16;77.45;100898.72;6220304;23;20023;-79
2022/06/27 07:53:35;;;;;;;13.15;10.65;;;;;;;20.35;76.83;100896.13;6222404;23;20457;-80
2022/06/27 07:56:06;;;;;;;19.35;10.95;;;;;;;20.62;76.23;100915.44;6222808;23;20039;-79
2022/06/27 07:58:35;;;;;;;14.27;10.32;;;;;;;20.54;75.01;100900.56;6223186;23;20020;-79
2022/06/27 08:01:05;;;;;;;11.93;10.60;;;;;;;20.64;74.50;100919.50;6223014;23;20412;-80
2022/06/27 08:03:40;;;;;;;14.10;10.48;;;;;;;20.38;76.49;100909.03;6223403;23;20021;-79
2022/06/27 08:06:10;;;;;;;12.45;11.20;;;;;;;20.14;76.63;100907.91;6224390;23;20095;-80
2022/06/27 08:08:39;;;;;;;11.30;10.13;;;;;;;19.89;78.46;100899.84;6225041;23;20020;-80
2022/06/27 08:11:08;;;;;;;14.85;11.48;;;;;;;19.71;79.48;100905.03;6222552;23;20036;-79
2022/06/27 08:13:36;;;;;;;13.23;11.63;;;;;;;19.66;79.34;100913.63;6223840;23;20563;-81
2022/06/27 08:16:05;;;;;;;13.25;11.43;;;;;;;19.58;79.80;100899.75;6223747;23;20183;-81
2022/06/27 08:18:32;;;;;;;14.75;11.70;;;;;;;19.66;80.20;100907.50;6222598;23;20031;-80
2022/06/27 08:20:59;;;;;;;13.00;11.65;;;;;;;19.90;79.55;100928.03;6223286;23;20023;-84
2022/06/27 08:23:28;;;;;;;14.45;12.25;;;;;;;19.86;78.92;100956.03;6222116;23;20040;-79
2022/06/27 08:25:56;;;;;;;16.42;12.80;;;;;;;19.79;79.10;100963.22;6221735;23;20021;-80
2022/06/27 08:28:23;;;;;;;16.00;12.13;;;;;;;19.80;79.00;100959.56;6221905;23;20074;-81
2022/06/27 08:30:50;;;;;;;14.45;12.95;;;;;;;19.39;80.41;101034.88;6223377;23;20040;-81
2022/06/27 08:33:18;;;;;;;18.15;13.13;;;;;;;19.23;81.63;101000.81;6222336;23;20025;-81
2022/06/27 08:35:47;;;;;;;15.85;12.38;;;;;;;19.26;82.97;100989.81;6222856;23;20027;-80
2022/06/27 08:38:15;;;;;;;17.38;13.00;;;;;;;19.31;82.29;100987.34;6225010;23;20346;-81
2022/06/27 08:40:45;;;;;;;18.73;14.00;;;;;;;19.12;82.79;100999.59;6223662;23;20020;-85
2022/06/27 08:43:12;;;;;;;17.73;14.23;;;;;;;19.06;82.93;100995.09;6225402;23;20024;-83
2022/06/27 08:45:39;;;;;;;19.05;13.57;;;;;;;19.05;83.26;101005.91;6225297;23;20044;-80
2022/06/27 08:48:08;;;;;;;25.98;15.45;;;;;;;18.95;83.42;101005.47;6222395;23;20017;-83
2022/06/27 08:50:36;;;;;;;31.10;15.00;;;;;;;18.95;84.19;101018.72;6222214;23;20400;-84
2022/06/27 08:53:03;;;;;;;25.00;14.88;;;;;;;18.97;84.51;101004.25;6221451;23;20024;-84
2022/06/27 08:55:33;;;;;;;19.77;13.68;;;;;;;18.99;83.91;101004.88;6221875;23;20087;-84
2022/06/27 08:58:06;;;;;;;16.73;12.60;;;;;;;18.97;84.44;100995.47;6220165;23;20024;-83
2022/06/27 09:00:36;;;;;;;17.15;12.63;;;;;;;19.07;83.61;101003.84;6220760;23;20438;-82
2022/06/27 09:03:03;;;;;;;15.88;13.05;;;;;;;19.04;83.55;100997.13;6220940;23;20028;-79
2022/06/27 09:05:33;;;;;;;17.08;13.75;;;;;;;19.14;83.00;101004.69;6221320;23;20361;-82
2022/06/27 09:08:02;;;;;;;17.77;13.55;;;;;;;19.13;82.93;101008.34;6222688;23;20090;-84
2022/06/27 09:10:32;;;;;;;17.02;13.50;;;;;;;19.13;83.26;101013.66;6222297;23;20115;-81
2022/06/27 09:13:01;;;;;;;17.13;13.18;;;;;;;19.11;83.38;101005.91;6222112;23;20020;-84
2022/06/27 09:15:45;;;;;;;16.70;12.88;;;;;;;19.31;83.84;100994.50;6221621;23;20056;-82
2022/06/27 09:18:14;;;;;;;18.48;13.75;;;;;;;19.44;83.54;100999.78;6221867;23;20096;-83
2022/06/27 09:21:03;;;;;;;21.55;13.52;;;;;;;19.60;82.64;100993.28;6222831;23;20441;-84
2022/06/27 09:23:35;;;;;;;20.75;13.30;;;;;;;19.82;82.70;100984.88;6216326;23;20060;-80
2022/06/27 09:26:04;;;;;;;19.73;13.55;;;;;;;19.85;81.23;100967.69;6223058;23;20373;-84
2022/06/27 09:28:52;;;;;;;21.77;13.35;;;;;;;20.07;81.16;100974.38;6223209;23;20039;-84
2022/06/27 09:31:42;;;;;;;17.02;12.63;;;;;;;20.23;80.28;100964.28;6223765;23;20053;-83
2022/06/27 09:34:16;;;;;;;14.45;12.45;;;;;;;20.41;78.18;100961.75;6224270;23;20051;-84
2022/06/27 09:36:50;;;;;;;15.85;13.20;;;;;;;20.37;76.64;100974.63;6224647;23;20024;-82
2022/06/27 09:39:25;;;;;;;16.17;12.48;;;;;;;20.48;75.58;100986.47;6227869;23;20024;-84
2022/06/27 09:41:58;;;;;;;16.40;12.27;;;;;;;20.28;75.70;100988.41;6228469;23;20080;-84
2022/06/27 09:44:38;;;;;;;15.68;12.48;;;;;;;20.58;75.41;100997.47;6231152;23;20025;-82
2022/06/27 09:47:16;;;;;;;14.80;12.68;;;;;;;20.70;75.00;101001.09;6228917;23;20028;-80
2022/06/27 09:49:46;;;;;;;16.77;12.45;;;;;;;20.86;75.13;101002.41;6227002;23;20025;-83
2022/06/27 09:52:14;;;;;;;21.80;14.07;;;;;;;20.74;75.53;100999.63;6228326;23;20381;-85
2022/06/27 09:54:43;;;;;;;16.58;12.82;;;;;;;20.87;74.76;100980.91;6225899;23;20025;-83
2022/06/27 09:57:11;;;;;;;13.88;12.48;;;;;;;21.15;72.98;100974.38;6223991;23;20366;-81
2022/06/27 09:59:39;;;;;;;15.10;12.02;;;;;;;21.31;72.64;100971.19;6222828;23;20048;-81
2022/06/27 10:02:08;;;;;;;16.60;12.45;;;;;;;22.03;70.95;100971.53;6221721;23;20020;-80
2022/06/27 10:04:37;;;;;;;15.68;12.02;;;;;;;22.68;67.55;101073.88;6222456;23;20028;-80
2022/06/27 10:07:08;;;;;;;14.75;11.68;;;;;;;23.17;65.33;100957.19;6223406;23;20055;-84
2022/06/27 10:09:36;;;;;;;14.88;12.02;;;;;;;23.72;63.75;100980.88;6223181;23;20031;-82
2022/06/27 10:12:31;;;;;;;14.45;12.90;;;;;;;23.53;63.21;100963.34;6227122;23;20127;-80
2022/06/27 10:15:24;;;;;;;17.40;12.93;;;;;;;23.53;63.13;100968.69;6228017;23;20048;-82
2022/06/27 10:18:00;;;;;;;19.20;13.48;;;;;;;23.02;64.90;100972.84;6227179;23;20032;-80
2022/06/27 10:20:36;;;;;;;16.50;14.10;;;;;;;22.64;66.57;100958.00;6229893;23;20020;-79
2022/06/27 10:23:28;;;;;;;17.95;14.80;;;;;;;22.21;67.54;100949.38;6226460;23;20051;-80
2022/06/27 10:25:56;;;;;;;18.98;14.07;;;;;;;21.95;68.60;100966.44;6229374;23;20079;-80
2022/06/27 10:28:23;;;;;;;15.55;13.90;;;;;;;21.63;69.13;100968.44;6223360;23;20021;-80
2022/06/27 10:30:52;;;;;;;16.48;14.07;;;;;;;21.77;69.79;100988.56;6223617;23;20084;-80
2022/06/27 10:33:37;;;;;;;17.05;14.38;;;;;;;21.59;70.71;101001.88;6224567;23;20048;-81
2022/06/27 10:36:13;;;;;;;15.65;13.50;;;;;;;21.69;70.12;100997.69;6227133;23;20031;-83
2022/06/27 10:38:49;;;;;;;18.13;14.95;;;;;;;21.57;69.73;100998.63;6228352;23;20034;-80
2022/06/27 10:41:38;;;;;;;17.90;14.75;;;;;;;21.71;70.69;100995.63;6231327;23;20025;-82
2022/06/27 10:44:06;;;;;;;19.67;14.65;;;;;;;21.64;71.38;101012.69;6232968;23;20031;-80
2022/06/27 10:46:51;;;;;;;18.33;15.60;;;;;;;21.68;72.79;101013.88;6239220;23;20020;-83
2022/06/27 10:49:26;;;;;;;20.17;16.70;;;;;;;21.68;73.73;101020.03;6238748;23;20025;-85
2022/06/27 10:52:13;;;;;;;19.25;16.90;;;;;;;21.78;72.02;101020.31;6240705;23;20021;-83
2022/06/27 10:54:45;;;;;;;22.50;18.80;;;;;;;21.76;71.21;101016.22;6239646;23;20043;-79
2022/06/27 10:57:13;;;;;;;23.60;17.35;;;;;;;21.86;72.93;101025.34;6238346;23;20055;-84
2022/06/27 10:59:54;;;;;;;18.10;15.57;;;;;;;22.01;72.17;101027.69;6230250;23;20052;-83
2022/06/27 11:02:27;;;;;;;21.85;16.40;;;;;;;21.86;73.02;101024.53;6222500;23;20031;-83
2022/06/27 11:04:55;;;;;;;20.58;15.70;;;;;;;21.78;75.34;101027.47;6223963;23;20020;-83
2022/06/27 11:07:22;;;;;;;19.83;15.35;;;;;;;21.85;76.06;101031.72;6222274;23;20047;-83
2022/06/27 11:09:49;;;;;;;20.00;15.20;;;;;;;22.01;76.29;101062.34;6223870;23;20031;-79
2022/06/27 11:12:18;;;;;;;19.60;15.75;;;;;;;22.07;74.01;101039.31;6223169;23;20071;-82
2022/06/27 11:14:47;;;;;;;17.73;14.35;;;;;;;21.92;70.92;101010.34;6223344;23;20385;-82
2022/06/27 11:17:47;;;;;;;17.60;13.45;;;;;;;21.97;72.31;101018.50;6225593;23;20048;-82
2022/06/27 11:20:18;;;;;;;17.55;14.18;;;;;;;22.26;71.57;101018.78;6204178;23;20357;-83
2022/06/27 11:22:46;;;;;;;19.27;14.38;;;;;;;22.14;71.45;101018.75;6220055;23;20017;-81
2022/06/27 11:25:13;;;;;;;20.15;14.25;;;;;;;22.02;70.89;101010.66;6219699;23;20361;-83
2022/06/27 11:27:55;;;;;;;18.98;14.45;;;;;;;22.15;71.72;101007.88;6219786;23;20031;-81
2022/06/27 11:33:31;;;;;;;18.77;13.43;;;;;;;22.23;67.36;100985.41;6220116;23;20035;-84